createdAt,value
2022-10-19T00:09:32.298Z,83.90
2022-10-19T00:31:19.408Z,84.61
2022-10-19T00:53:05.207Z,85.09
2022-10-19T01:15:04.679Z,85.22
2022-10-19T01:37:00.846Z,85.73
2022-10-19T02:02:44.529Z,86.02
2022-10-19T02:24:30.823Z,86.33
2022-10-19T02:46:24.581Z,86.33
2022-10-19T03:08:10.448Z,85.62
2022-10-19T03:29:56.763Z,85.50
2022-10-19T03:51:45.035Z,85.62
2022-10-19T04:13:31.346Z,85.73
2022-10-19T04:35:17.359Z,86.23
2022-10-19T04:57:03.221Z,85.93
2022-10-19T05:18:52.689Z,85.46
2022-10-19T05:40:38.643Z,85.23
2022-10-19T06:02:24.806Z,83.17
2022-10-19T06:24:13.310Z,81.71
2022-10-19T06:45:59.407Z,80.44
2022-10-19T07:07:45.729Z,79.83
2022-10-19T07:29:31.630Z,78.37
2022-10-19T07:51:21.191Z,77.02
2022-10-19T08:13:07.068Z,74.89
2022-10-19T08:34:52.927Z,72.75
2022-10-19T08:56:51.953Z,71.30
2022-10-19T09:18:38.255Z,68.46
2022-10-19T09:40:32.169Z,64.63
2022-10-19T10:02:22.543Z,63.40
2022-10-19T10:24:18.266Z,62.56
2022-10-19T10:46:08.337Z,61.68
2022-10-19T11:07:57.941Z,60.29
2022-10-19T11:30:04.751Z,58.32
2022-10-19T11:51:58.375Z,55.67
2022-10-19T12:13:49.420Z,57.30
2022-10-19T12:35:50.302Z,59.72
2022-10-19T12:57:36.558Z,61.36
2022-10-19T13:19:24.279Z,62.32
2022-10-19T13:41:15.365Z,63.52
2022-10-19T14:03:19.303Z,64.31
2022-10-19T14:25:18.177Z,64.16
2022-10-19T14:47:08.194Z,65.30
2022-10-19T15:09:12.148Z,65.97
2022-10-19T15:31:16.932Z,65.93
2022-10-19T16:02:46.313Z,67.09
2022-10-19T16:24:32.595Z,67.67
2022-10-19T16:46:21.941Z,68.23
2022-10-19T17:26:00.723Z,69.30
2022-10-19T17:47:46.440Z,70.06
2022-10-19T18:09:32.353Z,70.47
2022-10-19T18:31:20.629Z,72.37
2022-10-19T18:53:06.534Z,73.83
2022-10-19T19:14:52.452Z,75.64
2022-10-19T19:58:25.734Z,77.82
2022-10-19T20:20:17.983Z,79.18
2022-10-19T20:42:04.274Z,79.77
2022-10-19T21:03:52.672Z,79.92
2022-10-19T21:25:38.905Z,79.73
2022-10-19T21:47:24.689Z,79.75
2022-10-19T22:09:13.394Z,80.21
2022-10-19T22:31:00.535Z,79.74
2022-10-19T22:52:46.439Z,78.51
2022-10-19T23:14:32.295Z,76.61
2022-10-19T23:36:20.114Z,75.93
2022-10-19T23:58:06.697Z,75.97
